EGXE

Leeming Airport

Leeming, United Kingdom
METAR EGXE 220550Z AUTO 16007KT 6000 BR NCD 12/11 Q1006
Observed Flight Rules
Apr-22 @ 05:50 UTC (an hour ago) Marginal Visual Flight Rules
Wind Visibility Clouds Conditions
160° at 7 knots 6,003 meters
  • Clear skies
  • Mist
Temperatures Readings
Current 12°C / 54°F
Dewpoint 11°C / 52°F
Humidity 94%
Altimeter 29.7" Hg
Pressure 1006 hPa
Elevation 40
METAR EGXE 220550Z AUTO 16007KT 6000 BR NCD 12/11 Q1006
Observed Flight Rules
Apr-22 @ 05:50 UTC
(an hour ago)
MVFR
Wind Visibility
160° at 7 knots 6,003 meters
Clouds
  • Clear skies
Conditions
  • Mist
Temperature Dewpoint
12°C / 54°F 11°C / 52°F
Humidity Altimeter Pressure
94% 29.7" Hg 1006 hPa